createdAt,value
2019-03-29T00:00:26.678Z,33.00
2019-03-29T00:01:26.654Z,32.40
2019-03-29T00:02:26.650Z,31.30
2019-03-29T00:03:26.647Z,29.20
2019-03-29T00:04:27.039Z,33.60
2019-03-29T00:06:26.614Z,33.40
2019-03-29T00:07:39.043Z,29.50
2019-03-29T00:08:27.613Z,32.80
2019-03-29T00:09:26.630Z,36.30
2019-03-29T00:10:26.568Z,31.50
2019-03-29T00:11:26.563Z,34.50
2019-03-29T00:12:26.553Z,34.40
2019-03-29T00:13:26.568Z,35.80
2019-03-29T00:14:26.523Z,33.50
2019-03-29T00:15:26.682Z,34.80
2019-03-29T00:16:26.520Z,35.50
2019-03-29T00:17:26.497Z,33.90
2019-03-29T00:18:26.514Z,36.80
2019-03-29T00:19:27.237Z,37.80
2019-03-29T00:20:26.460Z,33.30
2019-03-29T00:21:26.470Z,39.10
2019-03-29T00:22:26.434Z,35.60
2019-03-29T00:23:26.447Z,36.30
2019-03-29T00:24:26.416Z,37.20
2019-03-29T00:25:26.404Z,34.40
2019-03-29T00:26:26.400Z,38.30
2019-03-29T00:27:26.403Z,34.90
2019-03-29T00:28:26.419Z,35.00
2019-03-29T00:29:26.395Z,36.10
2019-03-29T00:30:26.430Z,37.50
2019-03-29T00:31:26.392Z,33.90
2019-03-29T00:32:26.354Z,35.20
2019-03-29T00:33:26.409Z,39.00
2019-03-29T00:34:26.304Z,35.70
2019-03-29T00:35:26.292Z,35.80
2019-03-29T00:36:26.277Z,34.80
2019-03-29T00:37:26.267Z,38.10
2019-03-29T00:38:26.286Z,38.30
2019-03-29T00:39:26.245Z,37.30
2019-03-29T00:40:26.242Z,37.30
2019-03-29T00:41:26.220Z,38.90
2019-03-29T00:42:26.273Z,36.90
2019-03-29T00:43:26.212Z,36.60
2019-03-29T00:44:26.961Z,34.00
2019-03-29T00:45:26.228Z,34.90
2019-03-29T00:46:26.172Z,35.20
2019-03-29T00:47:26.245Z,34.10
2019-03-29T00:48:35.810Z,33.40
2019-03-29T00:49:26.132Z,37.20
2019-03-29T00:50:26.117Z,38.80
2019-03-29T00:51:26.123Z,36.50
2019-03-29T00:52:26.103Z,36.70
2019-03-29T00:53:26.114Z,39.10
2019-03-29T00:54:26.108Z,38.60
2019-03-29T00:55:26.069Z,39.60
2019-03-29T00:56:26.049Z,37.30
2019-03-29T00:57:26.044Z,39.40
2019-03-29T00:58:26.029Z,41.40
2019-03-29T00:59:26.072Z,42.00
2019-03-29T01:00:26.013Z,39.30
2019-03-29T01:01:26.348Z,42.20
2019-03-29T01:02:25.992Z,39.90
2019-03-29T01:03:25.998Z,37.40
2019-03-29T01:04:26.058Z,37.30
2019-03-29T01:05:25.958Z,35.60
2019-03-29T01:06:25.951Z,34.10
2019-03-29T01:07:25.950Z,34.30
2019-03-29T01:08:25.942Z,32.10
2019-03-29T01:09:34.219Z,35.50
2019-03-29T01:10:25.928Z,40.30
2019-03-29T01:11:25.890Z,39.30
2019-03-29T01:12:25.886Z,38.50
2019-03-29T01:13:25.868Z,38.80
2019-03-29T01:14:25.902Z,42.30
2019-03-29T01:15:25.870Z,40.70
2019-03-29T01:16:25.840Z,40.40
2019-03-29T01:17:25.833Z,35.40
2019-03-29T01:18:25.810Z,37.10
2019-03-29T01:19:25.839Z,34.10
2019-03-29T01:20:25.802Z,30.40
2019-03-29T01:21:25.787Z,34.00
2019-03-29T01:22:25.779Z,33.10
2019-03-29T01:23:35.075Z,32.00
2019-03-29T01:25:42.231Z,31.00
2019-03-29T01:26:42.182Z,34.80
2019-03-29T01:27:42.179Z,36.20
2019-03-29T01:28:42.176Z,35.10
2019-03-29T01:29:42.199Z,37.10
2019-03-29T01:30:42.152Z,33.50
2019-03-29T01:31:42.156Z,33.20
2019-03-29T01:32:42.118Z,31.90
2019-03-29T01:33:42.122Z,32.70
2019-03-29T01:34:43.046Z,32.80
2019-03-29T01:36:43.159Z,33.60
2019-03-29T01:37:42.064Z,32.10
2019-03-29T01:38:42.096Z,31.80
2019-03-29T01:39:42.313Z,34.70
2019-03-29T01:40:42.078Z,31.70
2019-03-29T01:41:42.032Z,31.80
2019-03-29T01:42:42.025Z,30.90
2019-03-29T01:43:42.025Z,32.60
2019-03-29T01:44:42.032Z,30.90
2019-03-29T01:45:42.052Z,27.40
2019-03-29T01:46:42.006Z,30.50
2019-03-29T01:47:41.962Z,28.40
2019-03-29T01:48:41.970Z,29.50
2019-03-29T01:49:42.226Z,30.00
2019-03-29T01:50:41.955Z,32.00
2019-03-29T01:51:41.945Z,33.70
2019-03-29T01:53:42.974Z,29.90
2019-03-29T01:54:41.914Z,27.70
2019-03-29T01:55:41.920Z,31.30
2019-03-29T01:56:41.887Z,29.20
2019-03-29T01:57:41.860Z,32.40
2019-03-29T01:58:41.849Z,31.40
2019-03-29T01:59:42.333Z,29.80
2019-03-29T02:00:41.851Z,28.70
2019-03-29T02:01:41.821Z,28.60
2019-03-29T02:02:41.823Z,30.60
2019-03-29T02:03:41.824Z,27.90
2019-03-29T02:04:41.794Z,30.20
2019-03-29T02:05:41.813Z,28.70
2019-03-29T02:06:41.784Z,30.60
2019-03-29T02:07:41.767Z,30.70
2019-03-29T02:08:41.754Z,31.00
2019-03-29T02:09:41.749Z,28.70
2019-03-29T02:10:41.763Z,33.90
2019-03-29T02:11:41.722Z,31.10
2019-03-29T02:12:41.718Z,32.00
2019-03-29T02:13:41.697Z,31.60
2019-03-29T02:14:41.677Z,31.20
2019-03-29T02:15:41.697Z,33.50
2019-03-29T02:16:41.654Z,36.10
2019-03-29T02:17:41.659Z,31.50
2019-03-29T02:18:41.641Z,31.80
2019-03-29T02:19:41.663Z,31.00
2019-03-29T02:20:41.612Z,34.80
2019-03-29T02:21:42.963Z,31.70
2019-03-29T02:22:41.624Z,32.70
2019-03-29T02:23:41.594Z,32.00
2019-03-29T02:24:41.609Z,31.80
2019-03-29T02:25:42.413Z,33.50
2019-03-29T02:26:41.585Z,31.70
2019-03-29T02:27:41.557Z,33.00
2019-03-29T02:28:41.542Z,37.50
2019-03-29T02:29:41.549Z,33.50
2019-03-29T02:30:41.511Z,37.60
2019-03-29T02:31:48.818Z,36.80
2019-03-29T02:32:41.477Z,38.00
2019-03-29T02:33:41.501Z,40.40
2019-03-29T02:34:43.621Z,40.00
2019-03-29T02:35:41.498Z,37.40
2019-03-29T02:36:41.476Z,36.20
2019-03-29T02:37:41.577Z,39.30
2019-03-29T02:38:55.201Z,40.30
2019-03-29T02:39:42.420Z,45.10
2019-03-29T02:40:41.398Z,41.70
2019-03-29T02:41:41.452Z,44.00
2019-03-29T02:42:42.791Z,45.40
2019-03-29T02:43:41.363Z,44.80
2019-03-29T02:44:41.372Z,44.70
2019-03-29T02:45:41.342Z,44.60
2019-03-29T02:46:41.354Z,46.20
2019-03-29T02:47:41.353Z,42.50
2019-03-29T02:48:41.346Z,41.40
2019-03-29T02:49:41.303Z,44.10
2019-03-29T02:50:41.313Z,44.00
2019-03-29T02:51:41.451Z,42.30
2019-03-29T02:52:41.302Z,46.30
2019-03-29T02:53:41.264Z,44.30
2019-03-29T02:54:41.322Z,46.80
2019-03-29T02:55:41.245Z,45.40
2019-03-29T02:57:42.239Z,46.30
2019-03-29T02:58:41.217Z,45.80
2019-03-29T02:59:41.207Z,47.20
2019-03-29T03:00:41.193Z,46.20
2019-03-29T03:01:41.172Z,49.60
2019-03-29T03:02:41.190Z,46.20
2019-03-29T03:03:41.156Z,47.00
2019-03-29T03:04:41.161Z,47.90
2019-03-29T03:05:41.162Z,48.90
2019-03-29T03:06:41.120Z,47.80
2019-03-29T03:07:41.175Z,44.60
2019-03-29T03:08:41.096Z,46.20
2019-03-29T03:09:41.219Z,47.80
2019-03-29T03:10:41.074Z,50.60
2019-03-29T03:11:41.084Z,50.30
2019-03-29T03:12:41.703Z,49.90
2019-03-29T03:13:41.154Z,50.90
2019-03-29T03:14:41.070Z,54.70
2019-03-29T03:15:41.038Z,54.60
2019-03-29T03:16:41.023Z,59.00
2019-03-29T03:17:41.024Z,54.50
2019-03-29T03:18:40.990Z,56.60
2019-03-29T03:19:41.037Z,58.70
2019-03-29T03:20:40.968Z,59.50
2019-03-29T03:21:40.965Z,56.40
2019-03-29T03:22:40.971Z,56.70
2019-03-29T03:23:40.983Z,55.90
2019-03-29T03:24:40.924Z,52.30
2019-03-29T03:25:40.917Z,57.50
2019-03-29T03:26:40.940Z,58.30
2019-03-29T03:27:40.976Z,58.80
2019-03-29T03:28:40.916Z,56.90
2019-03-29T03:29:40.882Z,57.90
2019-03-29T03:30:41.292Z,58.30
2019-03-29T03:31:40.851Z,59.00
2019-03-29T03:32:40.919Z,62.20
2019-03-29T03:33:40.930Z,56.10
2019-03-29T03:34:40.834Z,64.80
2019-03-29T03:35:40.841Z,65.40
2019-03-29T03:36:40.801Z,64.10
2019-03-29T03:37:40.791Z,63.80
2019-03-29T03:38:49.075Z,61.40
2019-03-29T03:39:40.773Z,63.20
2019-03-29T03:40:40.784Z,68.90
2019-03-29T03:41:40.748Z,68.50
2019-03-29T03:42:40.733Z,70.70
2019-03-29T03:43:40.750Z,60.60
2019-03-29T03:44:40.801Z,63.90
2019-03-29T03:45:40.703Z,63.90
2019-03-29T03:46:40.702Z,62.20
2019-03-29T03:47:40.701Z,68.80
2019-03-29T03:48:40.682Z,65.20
2019-03-29T03:49:40.815Z,62.90
2019-03-29T03:50:40.709Z,64.50
2019-03-29T03:51:40.648Z,64.20
2019-03-29T03:52:40.723Z,62.30
2019-03-29T03:53:40.618Z,65.50
2019-03-29T03:54:48.926Z,63.50
2019-03-29T03:55:41.331Z,63.90
2019-03-29T03:56:40.607Z,63.40
2019-03-29T03:57:40.589Z,65.50
2019-03-29T03:58:40.571Z,63.60
2019-03-29T03:59:40.559Z,69.60
2019-03-29T04:00:40.564Z,64.10
2019-03-29T04:01:40.597Z,60.10
2019-03-29T04:02:40.531Z,61.30
2019-03-29T04:03:40.536Z,63.30
2019-03-29T04:04:40.536Z,65.10
2019-03-29T04:05:40.533Z,62.60
2019-03-29T04:06:40.491Z,59.50
2019-03-29T04:07:40.470Z,61.10
2019-03-29T04:08:40.475Z,59.00
2019-03-29T04:09:50.714Z,63.40
2019-03-29T04:10:42.330Z,62.50
2019-03-29T04:11:40.422Z,61.70
2019-03-29T04:12:40.415Z,57.10
2019-03-29T04:13:40.417Z,60.40
2019-03-29T04:14:40.406Z,61.10
2019-03-29T04:15:40.412Z,57.30
2019-03-29T04:16:40.393Z,62.60
2019-03-29T04:17:40.456Z,62.10
2019-03-29T04:18:40.362Z,61.30
2019-03-29T04:19:40.341Z,61.80
2019-03-29T04:20:40.375Z,60.50
2019-03-29T04:21:40.331Z,60.30
2019-03-29T04:22:40.314Z,60.60
2019-03-29T04:23:49.387Z,63.50
2019-03-29T04:24:40.312Z,58.80
2019-03-29T04:25:40.281Z,56.10
2019-03-29T04:26:40.314Z,61.30
2019-03-29T04:27:40.292Z,57.70
2019-03-29T04:28:40.249Z,58.50
2019-03-29T04:29:40.243Z,58.70
2019-03-29T04:30:40.236Z,52.60
2019-03-29T04:31:40.254Z,58.60
2019-03-29T04:32:40.223Z,57.40
2019-03-29T04:33:40.191Z,59.50
2019-03-29T04:34:40.185Z,58.20
2019-03-29T04:35:40.170Z,60.50
2019-03-29T04:36:40.190Z,59.30
2019-03-29T04:37:40.170Z,59.70
2019-03-29T04:38:40.145Z,57.40
2019-03-29T04:39:40.143Z,58.00
2019-03-29T04:40:40.119Z,56.00
2019-03-29T04:41:40.134Z,58.60
2019-03-29T04:42:40.104Z,56.20
2019-03-29T04:43:40.118Z,59.60
2019-03-29T04:44:40.081Z,52.60
2019-03-29T04:45:40.087Z,54.60
2019-03-29T04:46:40.126Z,55.30
2019-03-29T04:47:40.052Z,59.10
2019-03-29T04:48:40.048Z,58.00
2019-03-29T04:49:40.035Z,62.50
2019-03-29T04:50:40.011Z,55.60
2019-03-29T04:51:40.017Z,54.80
2019-03-29T04:52:40.009Z,55.50
2019-03-29T04:53:39.989Z,54.30
2019-03-29T04:54:39.977Z,54.40
2019-03-29T04:55:39.961Z,54.20
2019-03-29T04:56:39.989Z,55.10
2019-03-29T04:57:39.957Z,61.80
2019-03-29T04:58:39.929Z,55.90
2019-03-29T04:59:39.925Z,52.30
2019-03-29T05:00:39.916Z,56.90
2019-03-29T05:01:39.896Z,56.40
2019-03-29T05:02:39.914Z,57.70
2019-03-29T05:03:39.877Z,52.90
2019-03-29T05:04:39.865Z,57.60
2019-03-29T05:05:39.857Z,57.40
2019-03-29T05:06:39.844Z,56.70
2019-03-29T05:07:39.878Z,54.50
2019-03-29T05:08:39.830Z,56.80
2019-03-29T05:09:39.817Z,57.00
2019-03-29T05:10:39.803Z,51.00
2019-03-29T05:11:39.793Z,59.30
2019-03-29T05:12:39.828Z,55.40
2019-03-29T05:13:39.766Z,56.60
2019-03-29T05:14:39.757Z,55.70
2019-03-29T05:15:39.759Z,59.60
2019-03-29T05:16:39.767Z,58.80
2019-03-29T05:17:39.781Z,58.80
2019-03-29T05:18:39.717Z,56.40
2019-03-29T05:19:39.711Z,60.00
2019-03-29T05:20:40.399Z,56.50
2019-03-29T05:21:39.692Z,57.70
2019-03-29T05:22:39.710Z,56.00
2019-03-29T05:23:39.675Z,57.90
2019-03-29T05:25:56.552Z,57.90
2019-03-29T05:26:56.531Z,56.80
2019-03-29T05:27:56.549Z,59.00
2019-03-29T05:28:56.509Z,58.10
2019-03-29T05:29:56.505Z,60.40
2019-03-29T05:30:56.493Z,58.50
2019-03-29T05:31:56.522Z,58.30
2019-03-29T05:32:56.489Z,58.30
2019-03-29T05:33:56.467Z,55.00
2019-03-29T05:34:56.440Z,56.80
2019-03-29T05:35:56.450Z,58.80
2019-03-29T05:36:58.438Z,60.30
2019-03-29T05:37:56.430Z,57.30
2019-03-29T05:38:56.425Z,81.90
2019-03-29T05:39:56.394Z,69.10
2019-03-29T05:40:56.378Z,59.00
2019-03-29T05:41:56.370Z,58.20
2019-03-29T05:42:56.411Z,56.40
2019-03-29T05:43:56.356Z,53.80
2019-03-29T05:44:56.343Z,57.10
2019-03-29T05:45:56.329Z,55.70
2019-03-29T05:46:56.319Z,53.60
2019-03-29T05:47:56.339Z,55.10
2019-03-29T05:48:56.321Z,54.00
2019-03-29T05:49:56.303Z,55.80
2019-03-29T05:50:56.279Z,59.00
2019-03-29T05:51:56.275Z,49.50
2019-03-29T05:52:56.289Z,51.30
2019-03-29T05:53:56.268Z,55.40
2019-03-29T05:54:56.235Z,54.30
2019-03-29T05:55:56.233Z,52.50
2019-03-29T05:56:56.205Z,52.20
2019-03-29T05:57:56.228Z,49.50
2019-03-29T05:58:56.238Z,50.80
2019-03-29T05:59:56.176Z,51.30
2019-03-29T06:00:56.181Z,56.50
2019-03-29T06:01:56.157Z,51.40
2019-03-29T06:02:56.163Z,53.10
2019-03-29T06:03:56.202Z,51.00
2019-03-29T06:04:56.137Z,55.50
2019-03-29T06:05:56.119Z,55.30
2019-03-29T06:06:56.111Z,58.00
2019-03-29T06:07:56.166Z,53.90
2019-03-29T06:08:56.079Z,51.90
2019-03-29T06:09:56.078Z,52.80
2019-03-29T06:10:56.075Z,57.00
2019-03-29T06:11:56.096Z,56.40
2019-03-29T06:12:56.063Z,53.30
2019-03-29T06:13:56.073Z,54.20
2019-03-29T06:14:56.023Z,54.20
2019-03-29T06:15:56.082Z,57.40
2019-03-29T06:16:56.007Z,57.60
2019-03-29T06:17:55.999Z,64.90
2019-03-29T06:18:55.997Z,65.10
2019-03-29T06:19:56.036Z,62.00
2019-03-29T06:20:55.959Z,55.70
2019-03-29T06:21:55.957Z,59.10
2019-03-29T06:24:05.615Z,46.30
2019-03-29T06:25:05.573Z,53.30
2019-03-29T06:26:06.499Z,56.40
2019-03-29T06:27:05.563Z,54.00
2019-03-29T06:28:05.577Z,57.50
2019-03-29T06:29:05.564Z,58.20
2019-03-29T06:30:05.516Z,56.90
2019-03-29T06:31:05.515Z,53.00
2019-03-29T06:32:05.535Z,53.10
2019-03-29T06:33:05.519Z,58.30
2019-03-29T06:34:05.501Z,56.00
2019-03-29T06:35:05.521Z,53.80
2019-03-29T06:36:05.450Z,56.40
2019-03-29T06:37:05.440Z,59.40
2019-03-29T06:38:05.462Z,56.30
2019-03-29T06:39:05.444Z,56.40
2019-03-29T06:40:05.487Z,55.30
2019-03-29T06:41:05.403Z,55.80
2019-03-29T06:42:05.401Z,54.50
2019-03-29T06:43:05.419Z,57.30
2019-03-29T06:44:05.395Z,55.00
2019-03-29T06:45:05.394Z,54.30
2019-03-29T06:46:05.361Z,61.60
2019-03-29T06:47:05.350Z,53.50
2019-03-29T06:48:05.353Z,57.20
2019-03-29T06:49:05.337Z,57.60
2019-03-29T06:50:05.327Z,52.60
2019-03-29T06:51:05.395Z,50.40
2019-03-29T06:52:05.305Z,52.90
2019-03-29T06:53:05.309Z,52.40
2019-03-29T06:54:05.291Z,54.80
2019-03-29T06:55:05.258Z,54.30
2019-03-29T06:56:05.244Z,54.30
2019-03-29T06:57:20.115Z,55.60
2019-03-29T06:58:05.343Z,55.30
2019-03-29T06:59:05.246Z,55.50
2019-03-29T07:00:05.243Z,60.70
2019-03-29T07:01:05.197Z,69.90
2019-03-29T07:02:05.179Z,77.00
2019-03-29T07:03:05.173Z,53.60
2019-03-29T07:04:05.186Z,53.90
2019-03-29T07:05:17.421Z,53.80
2019-03-29T07:06:05.139Z,50.90
2019-03-29T07:07:05.115Z,55.70
2019-03-29T07:09:06.190Z,55.10
2019-03-29T07:10:05.206Z,51.70
2019-03-29T07:11:16.749Z,50.90
2019-03-29T07:12:06.073Z,52.50
2019-03-29T07:13:05.071Z,49.60
2019-03-29T07:14:05.076Z,51.30
2019-03-29T07:15:05.054Z,50.90
2019-03-29T07:16:05.919Z,53.20
2019-03-29T07:17:05.096Z,53.00
2019-03-29T07:18:10.494Z,52.40
2019-03-29T07:19:07.920Z,51.10
2019-03-29T07:20:06.423Z,48.80
2019-03-29T07:21:04.998Z,50.50
2019-03-29T07:22:04.978Z,51.90
2019-03-29T07:23:04.959Z,52.80
2019-03-29T07:24:04.962Z,50.50
2019-03-29T07:25:10.085Z,48.30
2019-03-29T07:26:04.971Z,47.30
2019-03-29T07:27:04.943Z,48.40
2019-03-29T07:28:04.903Z,49.50
2019-03-29T07:29:05.043Z,47.50
2019-03-29T07:30:07.455Z,47.60
2019-03-29T07:31:05.481Z,47.80
2019-03-29T07:32:07.871Z,46.70
2019-03-29T07:33:04.870Z,43.30
2019-03-29T07:34:04.831Z,46.10
2019-03-29T07:35:06.946Z,43.70
2019-03-29T07:36:04.810Z,44.60
2019-03-29T07:37:05.955Z,45.70
2019-03-29T07:38:04.807Z,45.80
2019-03-29T07:39:04.784Z,47.40
2019-03-29T07:40:04.826Z,47.00
2019-03-29T07:41:04.763Z,46.00
2019-03-29T07:42:04.767Z,46.20
2019-03-29T07:43:04.765Z,47.90
2019-03-29T07:44:04.755Z,44.20
2019-03-29T07:45:04.762Z,46.10
2019-03-29T07:46:04.719Z,46.10
2019-03-29T07:47:05.011Z,47.90
2019-03-29T07:48:06.653Z,42.70
2019-03-29T07:49:06.517Z,44.70
2019-03-29T07:50:04.861Z,44.60
2019-03-29T07:51:04.688Z,44.20
2019-03-29T07:52:06.435Z,43.70
2019-03-29T07:53:04.874Z,45.10
2019-03-29T07:54:05.684Z,43.70
2019-03-29T07:55:04.661Z,48.90
2019-03-29T07:56:04.663Z,42.00
2019-03-29T07:57:04.901Z,40.40
2019-03-29T07:58:05.428Z,47.00
2019-03-29T07:59:05.570Z,41.90
2019-03-29T08:00:04.763Z,40.60
2019-03-29T08:01:04.574Z,42.50
2019-03-29T08:02:04.626Z,42.90
2019-03-29T08:03:04.521Z,45.30
2019-03-29T08:04:04.539Z,38.40
2019-03-29T08:05:05.431Z,39.70
2019-03-29T08:06:04.520Z,37.00
2019-03-29T08:07:06.206Z,40.90
2019-03-29T08:08:04.466Z,43.70
2019-03-29T08:09:04.458Z,40.00
2019-03-29T08:10:04.474Z,37.10
2019-03-29T08:11:04.638Z,40.50
2019-03-29T08:12:06.712Z,39.60
2019-03-29T08:13:04.956Z,37.10
2019-03-29T08:14:05.175Z,38.30
2019-03-29T08:15:20.017Z,40.50
2019-03-29T08:16:06.690Z,41.70
2019-03-29T08:17:04.405Z,37.70
2019-03-29T08:18:04.414Z,37.80
2019-03-29T08:19:04.425Z,39.50
2019-03-29T08:20:36.680Z,45.00
2019-03-29T08:21:05.354Z,44.60
2019-03-29T08:22:04.500Z,42.30
2019-03-29T08:23:05.033Z,45.90
2019-03-29T08:24:04.310Z,47.60
2019-03-29T08:25:11.535Z,44.60
2019-03-29T08:26:04.322Z,44.80
2019-03-29T08:27:04.276Z,43.50
2019-03-29T08:28:04.261Z,41.50
2019-03-29T08:29:04.247Z,40.70
2019-03-29T08:30:04.249Z,45.80
2019-03-29T08:31:04.251Z,36.70
2019-03-29T08:32:04.223Z,39.00
2019-03-29T08:33:04.384Z,67.60
2019-03-29T08:34:04.207Z,58.30
2019-03-29T08:35:04.181Z,42.50
2019-03-29T08:36:04.205Z,41.60
2019-03-29T08:37:05.025Z,37.20
2019-03-29T08:38:06.203Z,36.50
2019-03-29T08:39:04.150Z,60.60
2019-03-29T08:40:04.124Z,61.70
2019-03-29T08:41:04.179Z,39.90
2019-03-29T08:42:04.124Z,50.60
2019-03-29T08:43:04.097Z,41.90
2019-03-29T08:44:04.128Z,56.60
2019-03-29T08:45:04.109Z,46.20
2019-03-29T08:46:04.198Z,45.70
2019-03-29T08:47:04.062Z,59.20
2019-03-29T08:48:06.741Z,33.80
2019-03-29T08:49:05.036Z,41.80
2019-03-29T08:50:04.016Z,51.20
2019-03-29T08:51:04.099Z,41.30
2019-03-29T08:52:03.999Z,49.60
2019-03-29T08:53:04.055Z,35.40
2019-03-29T08:54:15.054Z,34.50
2019-03-29T08:55:03.961Z,37.40
2019-03-29T08:56:04.010Z,81.40
2019-03-29T08:57:03.962Z,85.20
2019-03-29T08:58:03.939Z,96.50
2019-03-29T08:59:03.928Z,124.20
2019-03-29T09:00:04.559Z,36.90
2019-03-29T09:01:03.952Z,65.60
2019-03-29T09:02:03.952Z,81.40
2019-03-29T09:03:03.884Z,74.00
2019-03-29T09:04:05.897Z,85.90
2019-03-29T09:05:03.848Z,67.50
2019-03-29T09:06:03.845Z,43.70
2019-03-29T09:07:06.094Z,51.80
2019-03-29T09:08:03.813Z,56.90
2019-03-29T09:09:03.807Z,47.70
2019-03-29T09:10:03.809Z,43.80
2019-03-29T09:11:07.326Z,49.80
2019-03-29T09:12:13.761Z,54.00
2019-03-29T09:13:08.544Z,34.10
2019-03-29T09:14:03.801Z,33.10
2019-03-29T09:15:04.247Z,32.60
2019-03-29T09:16:03.753Z,31.30
2019-03-29T09:17:03.756Z,31.30
2019-03-29T09:18:04.578Z,33.90
2019-03-29T09:19:03.703Z,33.00
2019-03-29T09:20:05.790Z,31.40
2019-03-29T09:21:07.696Z,31.30
2019-03-29T09:22:04.635Z,39.10
2019-03-29T09:23:03.686Z,31.80
2019-03-29T09:24:03.754Z,27.40
2019-03-29T09:25:03.710Z,30.90
2019-03-29T09:26:03.637Z,30.10
2019-03-29T09:27:03.637Z,33.10
2019-03-29T09:28:11.928Z,39.40
2019-03-29T09:31:04.811Z,28.90
2019-03-29T09:32:12.981Z,29.20
2019-03-29T09:33:03.620Z,30.80
2019-03-29T09:34:05.675Z,28.40
2019-03-29T09:35:06.679Z,29.10
2019-03-29T09:36:08.644Z,36.20
2019-03-29T09:37:10.281Z,31.30
2019-03-29T09:38:06.570Z,34.20
2019-03-29T09:39:07.593Z,27.10
2019-03-29T09:42:09.579Z,33.30
2019-03-29T09:43:08.004Z,77.00
2019-03-29T09:45:32.161Z,34.90
2019-03-29T09:47:38.514Z,25.90
2019-03-29T09:48:39.023Z,26.80
2019-03-29T09:49:32.079Z,29.50
2019-03-29T09:50:36.240Z,28.10
2019-03-29T09:51:32.070Z,23.10
2019-03-29T09:52:41.997Z,25.00
2019-03-29T09:53:35.052Z,24.30
2019-03-29T09:54:32.062Z,32.10
2019-03-29T09:55:32.004Z,26.90
2019-03-29T09:56:38.539Z,23.80
2019-03-29T09:57:37.205Z,24.30
2019-03-29T09:58:31.997Z,23.40
2019-03-29T09:59:36.031Z,29.60
2019-03-29T10:00:32.017Z,20.20
2019-03-29T10:02:33.258Z,22.50
2019-03-29T10:03:32.132Z,24.10
2019-03-29T10:06:33.211Z,22.40
2019-03-29T10:07:36.315Z,24.90
2019-03-29T10:08:31.871Z,22.10
2019-03-29T10:10:34.506Z,20.80
2019-03-29T10:11:31.924Z,21.70
2019-03-29T10:12:42.787Z,19.20
2019-03-29T10:13:32.851Z,28.90
2019-03-29T10:14:33.399Z,31.10
2019-03-29T10:16:21.471Z,25.20
2019-03-29T10:16:33.455Z,22.40
2019-03-29T10:18:33.105Z,37.30
2019-03-29T10:19:31.855Z,27.70
2019-03-29T10:20:32.890Z,28.20
2019-03-29T10:21:34.095Z,34.90
2019-03-29T10:22:34.580Z,22.50
2019-03-29T10:23:31.898Z,22.70
2019-03-29T10:24:31.689Z,17.30
2019-03-29T10:25:31.767Z,21.50
2019-03-29T10:26:31.746Z,14.80
2019-03-29T10:27:35.763Z,15.90
2019-03-29T10:28:32.202Z,17.60
2019-03-29T10:29:31.732Z,16.40
2019-03-29T10:31:33.539Z,28.90
2019-03-29T10:32:33.682Z,27.10
2019-03-29T10:33:31.827Z,19.10
2019-03-29T10:34:32.424Z,28.00
2019-03-29T10:35:33.712Z,27.50
2019-03-29T10:36:32.650Z,20.60
2019-03-29T10:37:33.621Z,15.80
2019-03-29T10:38:33.446Z,10.70
2019-03-29T10:39:31.712Z,16.10
2019-03-29T10:40:34.177Z,14.20
2019-03-29T10:42:57.712Z,16.20
2019-03-29T10:43:34.597Z,13.30
2019-03-29T10:52:01.068Z,19.30
2019-03-29T10:56:05.590Z,12.60
2019-03-29T10:59:27.828Z,9.70
2019-03-29T11:02:45.344Z,12.70
2019-03-29T11:03:45.460Z,10.10
2019-03-29T11:04:49.558Z,9.00
2019-03-29T11:05:45.328Z,12.40
2019-03-29T11:06:45.298Z,8.90
2019-03-29T11:07:45.300Z,6.30
2019-03-29T11:08:45.281Z,8.70
2019-03-29T11:09:45.309Z,19.00
2019-03-29T11:10:45.262Z,10.70
2019-03-29T11:11:45.341Z,7.50
2019-03-29T11:12:45.272Z,7.30
2019-03-29T11:13:45.308Z,6.90
2019-03-29T11:14:45.323Z,7.40
2019-03-29T11:15:45.258Z,6.70
2019-03-29T11:16:45.195Z,8.10
2019-03-29T11:17:47.268Z,7.90
2019-03-29T11:18:45.861Z,7.70
2019-03-29T11:19:45.193Z,6.40
2019-03-29T11:20:45.186Z,7.00
2019-03-29T11:21:45.149Z,6.50
2019-03-29T11:22:45.131Z,6.70
2019-03-29T11:23:45.165Z,9.80
2019-03-29T11:24:45.118Z,6.60
2019-03-29T11:25:48.386Z,7.00
2019-03-29T11:26:45.100Z,7.70
2019-03-29T11:27:45.090Z,6.20
2019-03-29T11:28:45.051Z,6.90
2019-03-29T11:29:45.078Z,6.90
2019-03-29T11:30:45.044Z,6.20
2019-03-29T11:31:45.051Z,6.90
2019-03-29T11:32:45.086Z,8.50
2019-03-29T11:33:45.036Z,6.60
2019-03-29T11:34:45.014Z,5.90
2019-03-29T11:35:44.990Z,8.60
2019-03-29T11:36:44.982Z,5.80
2019-03-29T11:37:44.965Z,5.80
2019-03-29T11:38:44.986Z,6.40
2019-03-29T11:39:45.003Z,7.40
2019-03-29T11:40:44.927Z,6.20
2019-03-29T11:41:44.961Z,10.50
2019-03-29T11:42:44.917Z,12.80
2019-03-29T11:43:44.907Z,20.50
2019-03-29T11:44:44.939Z,8.50
2019-03-29T11:45:45.037Z,9.10
2019-03-29T11:46:44.857Z,14.20
2019-03-29T11:47:44.894Z,6.10
2019-03-29T11:48:44.839Z,8.30
2019-03-29T11:49:44.863Z,6.90
2019-03-29T11:50:44.838Z,7.30
2019-03-29T11:51:51.363Z,9.90
2019-03-29T11:52:44.904Z,9.20
2019-03-29T11:53:44.870Z,9.90
2019-03-29T11:54:46.543Z,8.50
2019-03-29T11:55:44.777Z,9.20
2019-03-29T11:56:48.209Z,8.10
2019-03-29T11:58:09.913Z,8.20
2019-03-29T11:58:47.341Z,8.40
2019-03-29T11:59:44.804Z,12.10
2019-03-29T12:00:44.792Z,11.20
2019-03-29T12:01:44.756Z,7.00
2019-03-29T12:02:44.763Z,11.50
2019-03-29T12:03:44.701Z,8.10
2019-03-29T12:04:44.876Z,9.40
2019-03-29T12:05:50.081Z,15.40
2019-03-29T12:07:45.849Z,15.00
2019-03-29T12:08:44.658Z,8.70
2019-03-29T12:09:44.715Z,8.20
2019-03-29T12:10:45.013Z,11.10
2019-03-29T12:11:45.340Z,15.70
2019-03-29T12:13:01.447Z,15.10
2019-03-29T12:13:47.920Z,6.50
2019-03-29T12:14:44.599Z,8.30
2019-03-29T12:15:46.693Z,13.80
2019-03-29T12:16:48.358Z,8.20
2019-03-29T12:17:44.633Z,15.00
2019-03-29T12:18:45.294Z,9.50
2019-03-29T12:19:44.746Z,13.60
2019-03-29T12:20:44.579Z,9.70
2019-03-29T12:21:44.746Z,10.20
2019-03-29T12:22:48.389Z,14.90
2019-03-29T12:24:45.709Z,5.50
2019-03-29T12:25:46.628Z,6.20
2019-03-29T12:26:54.785Z,6.50
2019-03-29T12:27:44.423Z,9.40
2019-03-29T12:28:44.489Z,12.90
2019-03-29T12:29:44.833Z,9.40
2019-03-29T12:30:44.403Z,5.50
2019-03-29T12:31:45.398Z,7.00
2019-03-29T12:32:47.367Z,6.10
2019-03-29T12:33:44.370Z,6.20
2019-03-29T12:34:44.450Z,4.90
2019-03-29T12:36:47.013Z,11.70
2019-03-29T12:37:44.315Z,6.40
2019-03-29T12:38:44.428Z,5.20
2019-03-29T12:39:46.222Z,4.50
2019-03-29T12:40:45.296Z,7.60
2019-03-29T12:41:44.277Z,7.30
2019-03-29T12:42:45.933Z,6.90
2019-03-29T12:43:54.937Z,7.20
2019-03-29T12:44:45.239Z,5.60
2019-03-29T12:45:46.467Z,8.10
2019-03-29T12:46:44.212Z,6.30
2019-03-29T12:47:44.222Z,6.70
2019-03-29T12:48:50.092Z,4.70
2019-03-29T12:49:44.173Z,5.20
2019-03-29T12:50:44.194Z,5.20
2019-03-29T12:51:46.636Z,5.50
2019-03-29T12:52:44.399Z,4.80
2019-03-29T12:53:53.174Z,5.00
2019-03-29T12:54:54.937Z,5.70
2019-03-29T12:55:45.190Z,5.60
2019-03-29T12:56:44.914Z,5.50
2019-03-29T12:57:44.098Z,5.30
2019-03-29T12:58:55.301Z,4.60
2019-03-29T12:59:44.085Z,5.40
2019-03-29T13:00:45.323Z,5.50
2019-03-29T13:02:25.688Z,6.50
2019-03-29T13:02:45.043Z,5.40
2019-03-29T13:03:44.027Z,5.60
2019-03-29T13:04:46.935Z,5.00
2019-03-29T13:05:44.296Z,5.50
2019-03-29T13:06:44.061Z,5.20
2019-03-29T13:07:46.202Z,5.60
2019-03-29T13:08:43.973Z,7.60
2019-03-29T13:09:43.962Z,5.00
2019-03-29T13:10:52.874Z,5.00
2019-03-29T13:11:44.974Z,5.10
2019-03-29T13:12:43.946Z,5.80
2019-03-29T13:13:43.955Z,6.00
2019-03-29T13:14:49.949Z,4.40
2019-03-29T13:17:02.766Z,6.20
2019-03-29T13:18:00.437Z,6.50
2019-03-29T13:20:09.466Z,4.10
2019-03-29T13:21:09.457Z,4.70
2019-03-29T13:22:13.861Z,5.50
2019-03-29T13:23:13.705Z,5.30
2019-03-29T13:25:30.432Z,5.70
2019-03-29T13:26:36.416Z,5.50
2019-03-29T13:28:03.188Z,4.70
2019-03-29T13:28:52.968Z,4.70
2019-03-29T13:29:44.917Z,4.80
2019-03-29T13:30:33.471Z,5.20
2019-03-29T13:31:41.762Z,5.40
2019-03-29T13:32:38.041Z,6.10
2019-03-29T13:34:36.927Z,4.20
2019-03-29T13:36:14.659Z,4.90
2019-03-29T13:36:38.656Z,5.40
2019-03-29T13:38:20.296Z,6.30
2019-03-29T13:38:56.900Z,6.40
2019-03-29T13:39:38.878Z,6.90
2019-03-29T13:41:08.455Z,6.00
2019-03-29T13:41:41.517Z,5.90